FDB842 OMDB-OTHH
Flight info
| Callsign | FDB842 |
|---|---|
| Flight time | 0h 48m |
| Altitude | 22000 |
| Route | NABIX P699 OXARI M430 TOSNA |
| Aircraft | B738/M-SDE2E3FGHIRWXY/LB1 |
Departure
| Time | 2026-05-04 14:29 |
|---|---|
| Airport | Dubai International Airport (OMDB) |
Arrival
| Time | 2026-05-04 15:17 |
|---|---|
| Airport | Hamad International Airport (OTHH) |
| Time | Latitude | Longitude | Altitude | Speed | Heading |
|---|---|---|---|---|---|
| 2026-05-04 13:53 | 25.26716 | 55.35335 | 21 ft | 0 kts | 31° |
| 2026-05-04 14:12 | 25.26708 | 55.35329 | 21 ft | 3 kts | 31° |
| 2026-05-04 14:13 | 25.26688 | 55.35315 | 24 ft | 3 kts | 31° |
| 2026-05-04 14:13 | 25.26670 | 55.35303 | 23 ft | 3 kts | 38° |
| 2026-05-04 14:13 | 25.26656 | 55.35285 | 23 ft | 3 kts | 81° |
| 2026-05-04 14:13 | 25.26659 | 55.35261 | 22 ft | 3 kts | 120° |
| 2026-05-04 14:14 | 25.26672 | 55.35239 | 22 ft | 3 kts | 126° |
| 2026-05-04 14:14 | 25.26677 | 55.35232 | 22 ft | 0 kts | 122° |
| 2026-05-04 14:19 | 25.26676 | 55.35234 | 23 ft | 1 kts | 122° |
| 2026-05-04 14:19 | 25.26668 | 55.35246 | 24 ft | 3 kts | 123° |
| 2026-05-04 14:19 | 25.26652 | 55.35276 | 22 ft | 6 kts | 122° |
| 2026-05-04 14:20 | 25.26625 | 55.35322 | 21 ft | 8 kts | 122° |
| 2026-05-04 14:20 | 25.26591 | 55.35385 | 21 ft | 11 kts | 122° |
| 2026-05-04 14:20 | 25.26546 | 55.35465 | 23 ft | 14 kts | 122° |
| 2026-05-04 14:21 | 25.26427 | 55.35676 | 22 ft | 19 kts | 122° |
| 2026-05-04 14:21 | 25.26354 | 55.35803 | 21 ft | 21 kts | 122° |
| 2026-05-04 14:21 | 25.26275 | 55.35945 | 21 ft | 23 kts | 123° |
| 2026-05-04 14:21 | 25.26190 | 55.36100 | 21 ft | 24 kts | 122° |
| 2026-05-04 14:22 | 25.26096 | 55.36264 | 23 ft | 26 kts | 121° |
| 2026-05-04 14:22 | 25.26003 | 55.36428 | 21 ft | 25 kts | 122° |
| 2026-05-04 14:22 | 25.25932 | 55.36556 | 21 ft | 12 kts | 122° |
| 2026-05-04 14:22 | 25.25866 | 55.36598 | 21 ft | 12 kts | 190° |
| 2026-05-04 14:23 | 25.25755 | 55.36701 | 21 ft | 12 kts | 120° |
| 2026-05-04 14:23 | 25.25711 | 55.36775 | 21 ft | 12 kts | 124° |
| 2026-05-04 14:23 | 25.25668 | 55.36852 | 21 ft | 12 kts | 121° |
| 2026-05-04 14:24 | 25.25622 | 55.36934 | 23 ft | 13 kts | 122° |
| 2026-05-04 14:24 | 25.25571 | 55.37024 | 21 ft | 15 kts | 122° |
| 2026-05-04 14:24 | 25.25513 | 55.37127 | 21 ft | 17 kts | 122° |
| 2026-05-04 14:24 | 25.25448 | 55.37243 | 22 ft | 19 kts | 121° |
| 2026-05-04 14:25 | 25.25377 | 55.37370 | 22 ft | 21 kts | 122° |
| 2026-05-04 14:25 | 25.25214 | 55.37659 | 22 ft | 24 kts | 122° |
| 2026-05-04 14:25 | 25.25138 | 55.37794 | 21 ft | 21 kts | 122° |
| 2026-05-04 14:26 | 25.25059 | 55.37932 | 23 ft | 20 kts | 122° |
| 2026-05-04 14:26 | 25.25005 | 55.38030 | 21 ft | 13 kts | 121° |
| 2026-05-04 14:26 | 25.24986 | 55.38065 | 22 ft | 0 kts | 121° |
| 2026-05-04 14:26 | 25.24981 | 55.38074 | 21 ft | 3 kts | 122° |
| 2026-05-04 14:27 | 25.24970 | 55.38093 | 22 ft | 6 kts | 122° |
| 2026-05-04 14:27 | 25.24920 | 55.38122 | 21 ft | 11 kts | 185° |
| 2026-05-04 14:27 | 25.24840 | 55.38070 | 21 ft | 16 kts | 221° |
| 2026-05-04 14:27 | 25.24846 | 55.37950 | 22 ft | 19 kts | 299° |
| 2026-05-04 14:28 | 25.24925 | 55.37810 | 21 ft | 26 kts | 303° |
| 2026-05-04 14:28 | 25.25127 | 55.37447 | 23 ft | 88 kts | 302° |
| 2026-05-04 14:28 | 25.25553 | 55.36684 | 21 ft | 143 kts | 301° |
| 2026-05-04 14:28 | 25.26111 | 55.35614 | 249 ft | 169 kts | 302° |
| 2026-05-04 14:29 | 25.27418 | 55.33471 | 1556 ft | 166 kts | 301° |
| 2026-05-04 14:29 | 25.28728 | 55.31106 | 2267 ft | 203 kts | 304° |
| 2026-05-04 14:30 | 25.29254 | 55.29583 | 2430 ft | 223 kts | 274° |
| 2026-05-04 14:30 | 25.29100 | 55.27838 | 2749 ft | 234 kts | 265° |
| 2026-05-04 14:30 | 25.28727 | 55.24218 | 3606 ft | 241 kts | 265° |
| 2026-05-04 14:31 | 25.28535 | 55.22350 | 3908 ft | 250 kts | 266° |
| 2026-05-04 14:31 | 25.28134 | 55.18485 | 4613 ft | 258 kts | 266° |
| 2026-05-04 14:32 | 25.27714 | 55.14441 | 5111 ft | 278 kts | 266° |
| 2026-05-04 14:32 | 25.27489 | 55.12287 | 5577 ft | 284 kts | 266° |
| 2026-05-04 14:32 | 25.27261 | 55.10120 | 6202 ft | 284 kts | 266° |
| 2026-05-04 14:32 | 25.27031 | 55.07944 | 6777 ft | 285 kts | 266° |
| 2026-05-04 14:33 | 25.26804 | 55.05793 | 7344 ft | 285 kts | 266° |
| 2026-05-04 14:33 | 25.26573 | 55.03606 | 7891 ft | 287 kts | 266° |
| 2026-05-04 14:33 | 25.26341 | 55.01410 | 8428 ft | 288 kts | 266° |
| 2026-05-04 14:33 | 25.26108 | 54.99214 | 8998 ft | 288 kts | 266° |
| 2026-05-04 14:34 | 25.25874 | 54.97007 | 9523 ft | 289 kts | 266° |
| 2026-05-04 14:34 | 25.25639 | 54.94788 | 10062 ft | 293 kts | 266° |
| 2026-05-04 14:34 | 25.25402 | 54.92565 | 10833 ft | 288 kts | 266° |
| 2026-05-04 14:34 | 25.25167 | 54.90355 | 11408 ft | 294 kts | 266° |
| 2026-05-04 14:35 | 25.24919 | 54.88055 | 11740 ft | 308 kts | 266° |
| 2026-05-04 14:35 | 25.24650 | 54.85657 | 12137 ft | 319 kts | 265° |
| 2026-05-04 14:35 | 25.24405 | 54.83246 | 12816 ft | 318 kts | 272° |
| 2026-05-04 14:35 | 25.24728 | 54.80804 | 13166 ft | 328 kts | 279° |
| 2026-05-04 14:36 | 25.24644 | 54.78307 | 14016 ft | 323 kts | 260° |
| 2026-05-04 14:36 | 25.24139 | 54.75910 | 14515 ft | 317 kts | 259° |
| 2026-05-04 14:36 | 25.23668 | 54.73561 | 14734 ft | 311 kts | 261° |
| 2026-05-04 14:36 | 25.23271 | 54.71220 | 14722 ft | 309 kts | 263° |
| 2026-05-04 14:37 | 25.22939 | 54.68893 | 14730 ft | 305 kts | 264° |
| 2026-05-04 14:37 | 25.22646 | 54.66567 | 14741 ft | 306 kts | 265° |
| 2026-05-04 14:37 | 25.22467 | 54.64219 | 14739 ft | 306 kts | 271° |
| 2026-05-04 14:37 | 25.22503 | 54.61861 | 14763 ft | 306 kts | 274° |
| 2026-05-04 14:38 | 25.22599 | 54.59539 | 15211 ft | 307 kts | 275° |
| 2026-05-04 14:38 | 25.22703 | 54.57170 | 15869 ft | 309 kts | 274° |
| 2026-05-04 14:38 | 25.22801 | 54.54800 | 16563 ft | 309 kts | 274° |
| 2026-05-04 14:38 | 25.22892 | 54.52414 | 17209 ft | 312 kts | 274° |
| 2026-05-04 14:39 | 25.22976 | 54.50011 | 17842 ft | 315 kts | 273° |
| 2026-05-04 14:39 | 25.23055 | 54.47574 | 18423 ft | 317 kts | 272° |
| 2026-05-04 14:39 | 25.23130 | 54.45131 | 18996 ft | 319 kts | 272° |
| 2026-05-04 14:40 | 25.23274 | 54.40202 | 20157 ft | 323 kts | 272° |
| 2026-05-04 14:40 | 25.23344 | 54.37711 | 20734 ft | 325 kts | 272° |
| 2026-05-04 14:40 | 25.23412 | 54.35241 | 21286 ft | 327 kts | 272° |
| 2026-05-04 14:40 | 25.23482 | 54.32694 | 21724 ft | 329 kts | 272° |
| 2026-05-04 14:41 | 25.23549 | 54.30191 | 21718 ft | 329 kts | 272° |
| 2026-05-04 14:41 | 25.23618 | 54.27643 | 21748 ft | 338 kts | 272° |
| 2026-05-04 14:41 | 25.23763 | 54.22163 | 21748 ft | 374 kts | 272° |
| 2026-05-04 14:42 | 25.23919 | 54.16188 | 21757 ft | 403 kts | 271° |
| 2026-05-04 14:42 | 25.24000 | 54.13037 | 21753 ft | 415 kts | 271° |
| 2026-05-04 14:42 | 25.24083 | 54.09806 | 21756 ft | 426 kts | 271° |
| 2026-05-04 14:43 | 25.24166 | 54.06498 | 21752 ft | 435 kts | 271° |
| 2026-05-04 14:43 | 25.24250 | 54.03164 | 21751 ft | 443 kts | 271° |
| 2026-05-04 14:43 | 25.24335 | 53.99733 | 21738 ft | 446 kts | 271° |
| 2026-05-04 14:43 | 25.24420 | 53.96311 | 21731 ft | 444 kts | 271° |
| 2026-05-04 14:44 | 25.24503 | 53.92902 | 21736 ft | 443 kts | 271° |
| 2026-05-04 14:44 | 25.24585 | 53.89503 | 21736 ft | 443 kts | 271° |
| 2026-05-04 14:44 | 25.24666 | 53.86103 | 21739 ft | 443 kts | 271° |
| 2026-05-04 14:44 | 25.24747 | 53.82689 | 21738 ft | 443 kts | 271° |
| 2026-05-04 14:45 | 25.24827 | 53.79290 | 21743 ft | 443 kts | 271° |
| 2026-05-04 14:45 | 25.24907 | 53.75884 | 21745 ft | 443 kts | 271° |
| 2026-05-04 14:45 | 25.24985 | 53.72479 | 21738 ft | 444 kts | 271° |
| 2026-05-04 14:45 | 25.25062 | 53.69112 | 21741 ft | 444 kts | 271° |
| 2026-05-04 14:46 | 25.25139 | 53.65700 | 21737 ft | 445 kts | 271° |
| 2026-05-04 14:46 | 25.25215 | 53.62285 | 21744 ft | 445 kts | 271° |
| 2026-05-04 14:46 | 25.25291 | 53.58872 | 21743 ft | 445 kts | 271° |
| 2026-05-04 14:46 | 25.25366 | 53.55453 | 21742 ft | 445 kts | 271° |
| 2026-05-04 14:47 | 25.25440 | 53.52034 | 21752 ft | 445 kts | 271° |
| 2026-05-04 14:47 | 25.25513 | 53.48608 | 21753 ft | 445 kts | 271° |
| 2026-05-04 14:47 | 25.25585 | 53.45193 | 21747 ft | 445 kts | 271° |
| 2026-05-04 14:47 | 25.25657 | 53.41778 | 21741 ft | 444 kts | 271° |
| 2026-05-04 14:48 | 25.25728 | 53.38369 | 21747 ft | 444 kts | 271° |
| 2026-05-04 14:48 | 25.25798 | 53.34958 | 21748 ft | 443 kts | 271° |
| 2026-05-04 14:48 | 25.25867 | 53.31554 | 21747 ft | 443 kts | 271° |
| 2026-05-04 14:48 | 25.25934 | 53.28194 | 21747 ft | 443 kts | 271° |
| 2026-05-04 14:49 | 25.26002 | 53.24790 | 21751 ft | 443 kts | 271° |
| 2026-05-04 14:49 | 25.26068 | 53.21387 | 21750 ft | 443 kts | 271° |
| 2026-05-04 14:49 | 25.26134 | 53.17986 | 21749 ft | 443 kts | 271° |
| 2026-05-04 14:49 | 25.26199 | 53.14572 | 21750 ft | 443 kts | 271° |
| 2026-05-04 14:50 | 25.26264 | 53.11162 | 21745 ft | 444 kts | 271° |
| 2026-05-04 14:50 | 25.26328 | 53.07755 | 21746 ft | 444 kts | 271° |
| 2026-05-04 14:50 | 25.26390 | 53.04347 | 21748 ft | 444 kts | 271° |
| 2026-05-04 14:50 | 25.26453 | 53.00932 | 21748 ft | 444 kts | 271° |
| 2026-05-04 14:51 | 25.26514 | 52.97517 | 21748 ft | 444 kts | 271° |
| 2026-05-04 14:51 | 25.26607 | 52.94110 | 21762 ft | 444 kts | 272° |
| 2026-05-04 14:51 | 25.26692 | 52.90701 | 21756 ft | 444 kts | 271° |
| 2026-05-04 14:51 | 25.26735 | 52.87289 | 21754 ft | 444 kts | 270° |
| 2026-05-04 14:52 | 25.26770 | 52.83872 | 21751 ft | 445 kts | 270° |
| 2026-05-04 14:52 | 25.26813 | 52.80458 | 21750 ft | 444 kts | 271° |
| 2026-05-04 14:52 | 25.26864 | 52.77039 | 21750 ft | 444 kts | 271° |
| 2026-05-04 14:52 | 25.26921 | 52.73627 | 21749 ft | 444 kts | 271° |
| 2026-05-04 14:53 | 25.26978 | 52.70257 | 21754 ft | 444 kts | 271° |
| 2026-05-04 14:53 | 25.27380 | 52.66887 | 21633 ft | 444 kts | 286° |
| 2026-05-04 14:53 | 25.28391 | 52.63660 | 21373 ft | 441 kts | 288° |
| 2026-05-04 14:53 | 25.29356 | 52.60493 | 20985 ft | 429 kts | 287° |
| 2026-05-04 14:54 | 25.30245 | 52.57388 | 20615 ft | 418 kts | 286° |
| 2026-05-04 14:54 | 25.31234 | 52.54405 | 20236 ft | 409 kts | 295° |
| 2026-05-04 14:54 | 25.32606 | 52.51686 | 19891 ft | 401 kts | 299° |
| 2026-05-04 14:54 | 25.34019 | 52.49063 | 19536 ft | 394 kts | 299° |
| 2026-05-04 14:55 | 25.35385 | 52.46462 | 19186 ft | 387 kts | 298° |
| 2026-05-04 14:55 | 25.36683 | 52.43911 | 18848 ft | 384 kts | 297° |
| 2026-05-04 14:55 | 25.37989 | 52.41309 | 18515 ft | 387 kts | 297° |
| 2026-05-04 14:55 | 25.39298 | 52.38687 | 18183 ft | 389 kts | 297° |
| 2026-05-04 14:56 | 25.40604 | 52.36077 | 17819 ft | 386 kts | 297° |
| 2026-05-04 14:56 | 25.41904 | 52.33482 | 17430 ft | 384 kts | 297° |
| 2026-05-04 14:56 | 25.43193 | 52.30908 | 17056 ft | 381 kts | 298° |
| 2026-05-04 14:56 | 25.44473 | 52.28350 | 16686 ft | 378 kts | 298° |
| 2026-05-04 14:57 | 25.45740 | 52.25818 | 16315 ft | 374 kts | 298° |
| 2026-05-04 14:57 | 25.46988 | 52.23322 | 15945 ft | 368 kts | 298° |
| 2026-05-04 14:57 | 25.48204 | 52.20889 | 15578 ft | 362 kts | 298° |
| 2026-05-04 14:57 | 25.49414 | 52.18464 | 15219 ft | 356 kts | 298° |
| 2026-05-04 14:58 | 25.50606 | 52.16075 | 14865 ft | 351 kts | 298° |
| 2026-05-04 14:58 | 25.51777 | 52.13728 | 14523 ft | 346 kts | 298° |
| 2026-05-04 14:58 | 25.52934 | 52.11408 | 14169 ft | 342 kts | 298° |
| 2026-05-04 14:58 | 25.54076 | 52.09117 | 13831 ft | 338 kts | 298° |
| 2026-05-04 14:59 | 25.55204 | 52.06850 | 13483 ft | 334 kts | 299° |
| 2026-05-04 14:59 | 25.56321 | 52.04608 | 13098 ft | 330 kts | 299° |
| 2026-05-04 14:59 | 25.58461 | 52.00306 | 12993 ft | 307 kts | 299° |
| 2026-05-04 15:00 | 25.59484 | 51.98249 | 12941 ft | 305 kts | 299° |
| 2026-05-04 15:00 | 25.60274 | 51.96065 | 12784 ft | 308 kts | 280° |
| 2026-05-04 15:00 | 25.60219 | 51.93730 | 12676 ft | 310 kts | 258° |
| 2026-05-04 15:01 | 25.57915 | 51.89714 | 12448 ft | 318 kts | 225° |
| 2026-05-04 15:01 | 25.56231 | 51.88119 | 12329 ft | 319 kts | 223° |
| 2026-05-04 15:01 | 25.54527 | 51.86541 | 12205 ft | 319 kts | 223° |
| 2026-05-04 15:01 | 25.52831 | 51.84953 | 12084 ft | 319 kts | 224° |
| 2026-05-04 15:02 | 25.51144 | 51.83354 | 11955 ft | 319 kts | 224° |
| 2026-05-04 15:02 | 25.49459 | 51.81752 | 11841 ft | 319 kts | 223° |
| 2026-05-04 15:02 | 25.47657 | 51.80302 | 11699 ft | 322 kts | 214° |
| 2026-05-04 15:02 | 25.45710 | 51.79080 | 11592 ft | 322 kts | 212° |
| 2026-05-04 15:03 | 25.43742 | 51.77906 | 11487 ft | 321 kts | 212° |
| 2026-05-04 15:03 | 25.41782 | 51.76727 | 11355 ft | 320 kts | 212° |
| 2026-05-04 15:03 | 25.39836 | 51.75532 | 11236 ft | 319 kts | 213° |
| 2026-05-04 15:03 | 25.37900 | 51.74323 | 11117 ft | 319 kts | 213° |
| 2026-05-04 15:04 | 25.35967 | 51.73107 | 10931 ft | 321 kts | 213° |
| 2026-05-04 15:04 | 25.34023 | 51.71882 | 10749 ft | 322 kts | 213° |
| 2026-05-04 15:04 | 25.32009 | 51.70862 | 10533 ft | 328 kts | 196° |
| 2026-05-04 15:04 | 25.29725 | 51.70801 | 10365 ft | 331 kts | 171° |
| 2026-05-04 15:05 | 25.27538 | 51.71606 | 10205 ft | 331 kts | 159° |
| 2026-05-04 15:05 | 25.25408 | 51.72577 | 10020 ft | 331 kts | 159° |
| 2026-05-04 15:05 | 25.23275 | 51.73549 | 9835 ft | 331 kts | 159° |
| 2026-05-04 15:05 | 25.21141 | 51.74508 | 9647 ft | 330 kts | 159° |
| 2026-05-04 15:06 | 25.19014 | 51.75449 | 9455 ft | 329 kts | 159° |
| 2026-05-04 15:06 | 25.16883 | 51.76385 | 9256 ft | 328 kts | 159° |
| 2026-05-04 15:06 | 25.14763 | 51.77314 | 9045 ft | 327 kts | 159° |
| 2026-05-04 15:07 | 25.10557 | 51.79157 | 8619 ft | 327 kts | 159° |
| 2026-05-04 15:07 | 25.08436 | 51.80086 | 8379 ft | 328 kts | 159° |
| 2026-05-04 15:07 | 25.06314 | 51.81014 | 8142 ft | 328 kts | 160° |
| 2026-05-04 15:07 | 25.04152 | 51.81791 | 7884 ft | 327 kts | 173° |
| 2026-05-04 15:08 | 25.01914 | 51.81705 | 7644 ft | 320 kts | 198° |
| 2026-05-04 15:08 | 24.99956 | 51.80668 | 7401 ft | 307 kts | 222° |
| 2026-05-04 15:08 | 24.98603 | 51.78914 | 7100 ft | 297 kts | 243° |
| 2026-05-04 15:08 | 24.97644 | 51.76900 | 6631 ft | 296 kts | 248° |
| 2026-05-04 15:09 | 24.96756 | 51.74883 | 6186 ft | 295 kts | 248° |
| 2026-05-04 15:09 | 24.95875 | 51.72848 | 5705 ft | 293 kts | 251° |
| 2026-05-04 15:09 | 24.95511 | 51.70703 | 5196 ft | 282 kts | 281° |
| 2026-05-04 15:10 | 24.97774 | 51.67714 | 4256 ft | 261 kts | 347° |
| 2026-05-04 15:10 | 24.99554 | 51.67834 | 3788 ft | 261 kts | 21° |
| 2026-05-04 15:10 | 25.02624 | 51.69382 | 3511 ft | 229 kts | 3° |
| 2026-05-04 15:11 | 25.04147 | 51.69316 | 3493 ft | 210 kts | 351° |
| 2026-05-04 15:11 | 25.05499 | 51.68994 | 3491 ft | 188 kts | 345° |
| 2026-05-04 15:11 | 25.06684 | 51.68591 | 3471 ft | 168 kts | 342° |
| 2026-05-04 15:11 | 25.07763 | 51.68169 | 3499 ft | 163 kts | 341° |
| 2026-05-04 15:12 | 25.08463 | 51.67884 | 3509 ft | 161 kts | 341° |
| 2026-05-04 15:12 | 25.09534 | 51.67463 | 3361 ft | 167 kts | 342° |
| 2026-05-04 15:12 | 25.10620 | 51.67024 | 3165 ft | 166 kts | 341° |
| 2026-05-04 15:12 | 25.11697 | 51.66575 | 2947 ft | 163 kts | 341° |
| 2026-05-04 15:13 | 25.12736 | 51.66145 | 2730 ft | 156 kts | 342° |
| 2026-05-04 15:13 | 25.13738 | 51.65734 | 2522 ft | 150 kts | 341° |
| 2026-05-04 15:13 | 25.14675 | 51.65328 | 2359 ft | 138 kts | 341° |
| 2026-05-04 15:13 | 25.15575 | 51.64933 | 2158 ft | 139 kts | 341° |
| 2026-05-04 15:14 | 25.16460 | 51.64543 | 1969 ft | 136 kts | 340° |
| 2026-05-04 15:14 | 25.17345 | 51.64154 | 1799 ft | 138 kts | 339° |
| 2026-05-04 15:14 | 25.18240 | 51.63759 | 1613 ft | 138 kts | 338° |
| 2026-05-04 15:14 | 25.19131 | 51.63367 | 1409 ft | 137 kts | 339° |
| 2026-05-04 15:15 | 25.19997 | 51.62985 | 1254 ft | 135 kts | 338° |
| 2026-05-04 15:15 | 25.20888 | 51.62592 | 1054 ft | 140 kts | 339° |
| 2026-05-04 15:15 | 25.21790 | 51.62197 | 896 ft | 139 kts | 339° |
| 2026-05-04 15:16 | 25.23599 | 51.61387 | 616 ft | 142 kts | 338° |
| 2026-05-04 15:16 | 25.24536 | 51.60974 | 388 ft | 146 kts | 340° |
| 2026-05-04 15:16 | 25.26316 | 51.60197 | 21 ft | 121 kts | 339° |
| 2026-05-04 15:17 | 25.26985 | 51.59907 | 18 ft | 88 kts | 338° |
| 2026-05-04 15:17 | 25.27690 | 51.59597 | 17 ft | 28 kts | 337° |
| 2026-05-04 15:17 | 25.27866 | 51.59526 | 16 ft | 26 kts | 349° |
| 2026-05-04 15:18 | 25.28039 | 51.59521 | 19 ft | 14 kts | 8° |